createdAt,value
2016-01-11T00:00:13.450Z,985.7
2016-01-11T00:01:13.406Z,985.6
2016-01-11T00:02:13.190Z,985.6
2016-01-11T00:03:13.285Z,985.5
2016-01-11T00:04:13.461Z,985.7
2016-01-11T00:05:13.167Z,985.6
2016-01-11T00:06:13.356Z,985.6
2016-01-11T00:07:13.061Z,985.7
2016-01-11T00:08:13.002Z,985.4
2016-01-11T00:09:12.942Z,985.6
2016-01-11T00:10:12.147Z,985.6
2016-01-11T00:11:12.823Z,985.5
2016-01-11T00:12:12.778Z,985.5
2016-01-11T00:13:12.719Z,985.5
2016-01-11T00:14:12.674Z,985.7
2016-01-11T00:15:12.599Z,985.5
2016-01-11T00:16:12.555Z,985.6
2016-01-11T00:17:12.480Z,985.5
2016-01-11T00:18:12.435Z,985.6
2016-01-11T00:19:12.391Z,985.6
2016-01-11T00:20:12.332Z,985.5
2016-01-11T00:21:12.256Z,985.4
2016-01-11T00:22:12.212Z,985.5
2016-01-11T00:23:12.152Z,985.5
2016-01-11T00:24:12.093Z,985.6
2016-01-11T00:25:12.033Z,985.5
2016-01-11T00:26:11.988Z,985.5
2016-01-11T00:27:11.959Z,985.6
2016-01-11T00:28:11.868Z,985.5
2016-01-11T00:29:11.809Z,985.5
2016-01-11T00:30:11.765Z,985.5
2016-01-11T00:31:11.705Z,985.5
2016-01-11T00:32:10.911Z,985.4
2016-01-11T00:33:11.601Z,985.5
2016-01-11T00:34:11.542Z,985.5
2016-01-11T00:35:11.481Z,985.4
2016-01-11T00:36:11.422Z,985.4
2016-01-11T00:37:11.362Z,985.5
2016-01-11T00:38:11.334Z,985.6
2016-01-11T00:39:11.259Z,985.4
2016-01-11T00:40:11.198Z,985.5
2016-01-11T00:41:11.139Z,985.5
2016-01-11T00:42:11.095Z,985.4
2016-01-11T00:43:11.034Z,985.3
2016-01-11T00:44:10.990Z,985.4
2016-01-11T00:45:10.930Z,985.4
2016-01-11T00:46:11.059Z,985.5
2016-01-11T00:47:11.030Z,985.5
2016-01-11T00:48:10.736Z,985.4
2016-01-11T00:49:09.958Z,985.5
2016-01-11T00:50:10.491Z,985.5
2016-01-11T00:51:10.572Z,985.5
2016-01-11T00:52:10.949Z,985.4
2016-01-11T00:53:10.468Z,985.5
2016-01-11T00:54:10.408Z,985.5
2016-01-11T00:55:10.364Z,985.4
2016-01-11T00:56:10.304Z,985.4
2016-01-11T00:57:10.229Z,985.3
2016-01-11T00:58:10.185Z,985.5
2016-01-11T00:59:10.125Z,985.3
2016-01-11T01:00:10.065Z,985.4
2016-01-11T01:01:10.021Z,985.3
2016-01-11T01:02:09.946Z,985.3
2016-01-11T01:03:09.902Z,985.5
2016-01-11T01:04:09.841Z,985.3
2016-01-11T01:05:09.984Z,985.3
2016-01-11T01:06:09.754Z,985.3
2016-01-11T01:07:09.709Z,985.3
2016-01-11T01:08:09.618Z,985.2
2016-01-11T01:09:09.574Z,985.1
2016-01-11T01:10:09.512Z,985.2
2016-01-11T01:11:09.451Z,985.2
2016-01-11T01:12:09.407Z,985.2
2016-01-11T01:13:09.331Z,985.2
2016-01-11T01:14:09.287Z,985.1
2016-01-11T01:15:09.228Z,985.2
2016-01-11T01:16:09.168Z,985.2
2016-01-11T01:17:09.124Z,985.3
2016-01-11T01:18:09.095Z,985.2
2016-01-11T01:19:09.239Z,985.2
2016-01-11T01:20:08.960Z,985.4
2016-01-11T01:21:08.884Z,985.3
2016-01-11T01:22:10.002Z,985.2
2016-01-11T01:23:08.801Z,985.2
2016-01-11T01:24:08.726Z,985.4
2016-01-11T01:25:08.666Z,985.2
2016-01-11T01:26:08.809Z,985.3
2016-01-11T01:27:08.562Z,985.4
2016-01-11T01:28:08.518Z,985.3
2016-01-11T01:29:08.677Z,985.2
2016-01-11T01:30:08.398Z,985.3
2016-01-11T01:31:08.338Z,985.3
2016-01-11T01:32:08.279Z,985.4
2016-01-11T01:33:08.250Z,985.3
2016-01-11T01:34:08.190Z,985.2
2016-01-11T01:35:08.131Z,985.2
2016-01-11T01:36:08.055Z,985.3
2016-01-11T01:37:08.230Z,985.3
2016-01-11T01:38:07.952Z,985.2
2016-01-11T01:39:07.907Z,985.3
2016-01-11T01:40:07.847Z,985.2
2016-01-11T01:41:07.772Z,985.2
2016-01-11T01:42:07.727Z,985.3
2016-01-11T01:43:07.668Z,985.3
2016-01-11T01:44:07.640Z,985.2
2016-01-11T01:45:07.564Z,985.4
2016-01-11T01:46:07.504Z,985.3
2016-01-11T01:47:07.679Z,985.3
2016-01-11T01:48:07.384Z,985.2
2016-01-11T01:49:07.340Z,985.4
2016-01-11T01:50:07.296Z,985.3
2016-01-11T01:51:07.220Z,985.3
2016-01-11T01:52:07.411Z,985.2
2016-01-11T01:53:07.117Z,985.4
2016-01-11T01:54:07.072Z,985.2
2016-01-11T01:55:07.012Z,985.3
2016-01-11T01:56:06.953Z,985.3
2016-01-11T01:57:06.893Z,985.2
2016-01-11T01:58:06.833Z,985.3
2016-01-11T01:59:07.023Z,985.3
2016-01-11T02:00:06.730Z,985.4
2016-01-11T02:01:06.685Z,985.2
2016-01-11T02:02:06.625Z,985.2
2016-01-11T02:03:06.550Z,985.3
2016-01-11T02:04:06.491Z,985.1
2016-01-11T02:05:06.446Z,985
2016-01-11T02:06:06.386Z,985.2
2016-01-11T02:07:06.342Z,985
2016-01-11T02:08:06.283Z,985.2
2016-01-11T02:09:06.207Z,985.2
2016-01-11T02:10:06.163Z,985.1
2016-01-11T02:11:06.135Z,985.2
2016-01-11T02:12:06.058Z,985.1
2016-01-11T02:13:05.983Z,985.3
2016-01-11T02:14:05.939Z,985.2
2016-01-11T02:15:06.113Z,985.1
2016-01-11T02:16:06.069Z,985.3
2016-01-11T02:17:05.760Z,985.1
2016-01-11T02:18:05.732Z,985.2
2016-01-11T02:19:05.671Z,985.1
2016-01-11T02:20:06.034Z,985.2
2016-01-11T02:21:05.537Z,985.1
2016-01-11T02:22:05.493Z,985.1
2016-01-11T02:23:05.667Z,985.2
2016-01-11T02:24:05.606Z,985.1
2016-01-11T02:25:05.312Z,985.1
2016-01-11T02:26:05.456Z,985.2
2016-01-11T02:27:05.209Z,985
2016-01-11T02:28:05.149Z,985
2016-01-11T02:29:05.292Z,985.1
2016-01-11T02:30:05.467Z,985.1
2016-01-11T02:31:04.970Z,985.1
2016-01-11T02:32:04.925Z,985.2
2016-01-11T02:33:04.881Z,985.2
2016-01-11T02:34:05.009Z,985.1
2016-01-11T02:35:04.745Z,985.2
2016-01-11T02:36:04.702Z,985.2
2016-01-11T02:37:04.642Z,985.1
2016-01-11T02:38:04.598Z,985.1
2016-01-11T02:39:04.522Z,985
2016-01-11T02:40:04.463Z,985.1
2016-01-11T02:41:04.419Z,985.2
2016-01-11T02:42:04.375Z,985.1
2016-01-11T02:43:04.300Z,985
2016-01-11T02:44:04.239Z,985
2016-01-11T02:45:04.195Z,985.1
2016-01-11T02:46:04.119Z,985
2016-01-11T02:47:04.075Z,985.1
2016-01-11T02:48:04.031Z,985
2016-01-11T02:49:03.972Z,985.1
2016-01-11T02:50:04.130Z,985.2
2016-01-11T02:51:03.821Z,985
2016-01-11T02:52:03.777Z,985
2016-01-11T02:53:03.717Z,984.9
2016-01-11T02:54:03.672Z,985
2016-01-11T02:55:03.613Z,985
2016-01-11T02:56:03.538Z,984.9
2016-01-11T02:57:03.477Z,985
2016-01-11T02:58:03.433Z,985.2
2016-01-11T02:59:03.390Z,985
2016-01-11T03:00:03.610Z,985.1
2016-01-11T03:01:03.254Z,985.1
2016-01-11T03:02:03.443Z,985.1
2016-01-11T03:03:03.150Z,985.1
2016-01-11T03:04:03.106Z,985
2016-01-11T03:05:02.890Z,985.1
2016-01-11T03:06:02.971Z,985.1
2016-01-11T03:07:03.114Z,985.1
2016-01-11T03:08:02.867Z,985
2016-01-11T03:09:02.807Z,985.1
2016-01-11T03:10:02.760Z,985.1
2016-01-11T03:11:02.701Z,985.2
2016-01-11T03:12:02.640Z,985.2
2016-01-11T03:13:02.565Z,985.2
2016-01-11T03:14:02.520Z,985.1
2016-01-11T03:15:02.461Z,985.1
2016-01-11T03:16:02.386Z,985
2016-01-11T03:17:02.356Z,985.1
2016-01-11T03:18:02.531Z,985.1
2016-01-11T03:19:02.253Z,985
2016-01-11T03:20:02.178Z,985.1
2016-01-11T03:21:02.118Z,985
2016-01-11T03:22:02.058Z,985
2016-01-11T03:23:01.998Z,985.1
2016-01-11T03:24:01.938Z,985
2016-01-11T03:25:01.894Z,985
2016-01-11T03:26:01.836Z,985
2016-01-11T03:27:01.775Z,985
2016-01-11T03:28:01.918Z,985
2016-01-11T03:29:01.656Z,985
2016-01-11T03:30:01.612Z,985
2016-01-11T03:31:01.552Z,985.1
2016-01-11T03:32:01.491Z,985
2016-01-11T03:33:01.433Z,984.8
2016-01-11T03:34:01.372Z,985.1
2016-01-11T03:35:01.328Z,984.9
2016-01-11T03:36:01.268Z,985.1
2016-01-11T03:37:01.208Z,985.1
2016-01-11T03:38:01.336Z,984.9
2016-01-11T03:39:01.089Z,985.1
2016-01-11T03:40:01.029Z,985.1
2016-01-11T03:41:00.985Z,984.9
2016-01-11T03:42:00.924Z,985
2016-01-11T03:43:01.099Z,985.1
2016-01-11T03:44:00.805Z,985.1
2016-01-11T03:45:00.762Z,985
2016-01-11T03:46:00.685Z,985
2016-01-11T03:47:00.631Z,985
2016-01-11T03:48:00.540Z,985
2016-01-11T03:49:00.467Z,985
2016-01-11T03:50:00.424Z,985
2016-01-11T03:51:00.349Z,984.9
2016-01-11T03:52:00.283Z,984.9
2016-01-11T03:53:00.454Z,984.9
2016-01-11T03:54:00.154Z,985
2016-01-11T03:55:00.088Z,985
2016-01-11T03:56:00.039Z,984.9
2016-01-11T03:56:59.977Z,985
2016-01-11T03:58:00.104Z,985
2016-01-11T03:58:59.870Z,985
2016-01-11T03:59:59.792Z,984.9
2016-01-11T04:00:59.731Z,985
2016-01-11T04:01:59.686Z,984.9
2016-01-11T04:02:59.624Z,985
2016-01-11T04:03:59.548Z,985.1
2016-01-11T04:04:59.520Z,985
2016-01-11T04:05:59.443Z,985
2016-01-11T04:06:59.398Z,985
2016-01-11T04:07:59.339Z,985
2016-01-11T04:08:59.262Z,984.9
2016-01-11T04:09:59.437Z,984.8
2016-01-11T04:10:59.158Z,985
2016-01-11T04:11:59.099Z,984.9
2016-01-11T04:12:59.054Z,984.8
2016-01-11T04:13:58.993Z,984.9
2016-01-11T04:14:58.918Z,985
2016-01-11T04:15:59.062Z,984.7
2016-01-11T04:16:58.815Z,984.9
2016-01-11T04:17:58.754Z,984.8
2016-01-11T04:18:58.696Z,984.8
2016-01-11T04:19:58.635Z,984.9
2016-01-11T04:20:58.810Z,984.8
2016-01-11T04:21:58.750Z,984.8
2016-01-11T04:22:58.456Z,984.8
2016-01-11T04:23:58.412Z,984.8
2016-01-11T04:24:58.351Z,984.9
2016-01-11T04:25:58.495Z,984.7
2016-01-11T04:26:58.217Z,984.8
2016-01-11T04:27:58.172Z,984.8
2016-01-11T04:28:58.112Z,984.8
2016-01-11T04:29:58.068Z,984.8
2016-01-11T04:30:58.009Z,984.8
2016-01-11T04:31:57.949Z,984.9
2016-01-11T04:32:58.077Z,984.9
2016-01-11T04:33:57.829Z,984.8
2016-01-11T04:34:57.801Z,984.8
2016-01-11T04:35:57.741Z,984.9
2016-01-11T04:36:57.650Z,984.8
2016-01-11T04:37:57.590Z,984.7
2016-01-11T04:38:57.530Z,984.7
2016-01-11T04:39:57.471Z,984.8
2016-01-11T04:40:57.427Z,984.7
2016-01-11T04:41:57.383Z,984.6
2016-01-11T04:42:57.308Z,984.7
2016-01-11T04:43:57.248Z,984.6
2016-01-11T04:44:57.234Z,984.6
2016-01-11T04:45:57.143Z,984.6
2016-01-11T04:46:57.083Z,984.5
2016-01-11T04:47:57.024Z,984.6
2016-01-11T04:48:56.964Z,984.6
2016-01-11T04:49:56.905Z,984.6
2016-01-11T04:50:56.844Z,984.5
2016-01-11T04:51:56.816Z,984.6
2016-01-11T04:52:56.741Z,984.6
2016-01-11T04:53:56.680Z,984.6
2016-01-11T04:54:56.621Z,984.6
2016-01-11T04:55:56.560Z,984.6
2016-01-11T04:56:56.502Z,984.6
2016-01-11T04:57:56.441Z,984.6
2016-01-11T04:58:56.394Z,984.5
2016-01-11T04:59:56.335Z,984.6
2016-01-11T05:00:56.260Z,984.6
2016-01-11T05:01:56.059Z,984.6
2016-01-11T05:02:56.143Z,984.5
2016-01-11T05:03:56.113Z,984.5
2016-01-11T05:04:56.039Z,984.5
2016-01-11T05:05:55.979Z,984.6
2016-01-11T05:06:56.201Z,984.5
2016-01-11T05:07:55.875Z,984.5
2016-01-11T05:08:55.816Z,984.4
2016-01-11T05:09:55.740Z,984.5
2016-01-11T05:10:55.696Z,984.4
2016-01-11T05:11:55.870Z,984.4
2016-01-11T05:12:55.592Z,984.4
2016-01-11T05:13:55.376Z,984.3
2016-01-11T05:14:55.472Z,984.3
2016-01-11T05:15:55.397Z,984.4
2016-01-11T05:16:55.384Z,984.4
2016-01-11T05:17:55.277Z,984.5
2016-01-11T05:18:55.234Z,984.3
2016-01-11T05:19:55.189Z,984.3
2016-01-11T05:20:55.114Z,984.4
2016-01-11T05:21:55.054Z,984.4
2016-01-11T05:22:55.009Z,984.5
2016-01-11T05:23:54.950Z,984.4
2016-01-11T05:24:54.906Z,984.2
2016-01-11T05:25:54.830Z,984.4
2016-01-11T05:26:54.770Z,984.4
2016-01-11T05:27:54.711Z,984.3
2016-01-11T05:28:54.666Z,984.5
2016-01-11T05:29:54.606Z,984.4
2016-01-11T05:30:54.547Z,984.4
2016-01-11T05:31:54.487Z,984.2
2016-01-11T05:32:54.661Z,984.4
2016-01-11T05:33:54.774Z,984.3
2016-01-11T05:34:54.323Z,984.4
2016-01-11T05:35:54.248Z,984.4
2016-01-11T05:36:54.235Z,984.3
2016-01-11T05:37:54.378Z,984.5
2016-01-11T05:38:54.319Z,984.4
2016-01-11T05:39:54.008Z,984.3
2016-01-11T05:40:53.964Z,984.3
2016-01-11T05:41:53.921Z,984.4
2016-01-11T05:42:53.845Z,984.4
2016-01-11T05:43:53.786Z,984.4
2016-01-11T05:44:53.960Z,984.3
2016-01-11T05:45:53.682Z,984.4
2016-01-11T05:46:53.637Z,984.4
2016-01-11T05:47:52.812Z,984.4
2016-01-11T05:48:53.486Z,984.4
2016-01-11T05:49:53.443Z,984.5
2016-01-11T05:50:53.523Z,984.5
2016-01-11T05:51:53.338Z,984.5
2016-01-11T05:52:53.293Z,984.6
2016-01-11T05:53:53.235Z,984.5
2016-01-11T05:54:53.143Z,984.5
2016-01-11T05:55:53.099Z,984.5
2016-01-11T05:56:53.101Z,984.5
2016-01-11T05:57:52.995Z,984.4
2016-01-11T05:58:52.920Z,984.5
2016-01-11T05:59:52.859Z,984.5
2016-01-11T06:00:52.815Z,984.3
2016-01-11T06:01:52.756Z,984.3
2016-01-11T06:02:52.696Z,984.3
2016-01-11T06:03:52.636Z,984.2
2016-01-11T06:04:52.576Z,984.2
2016-01-11T06:05:52.531Z,984.3
2016-01-11T06:06:52.488Z,984.4
2016-01-11T06:07:52.412Z,984.3
2016-01-11T06:08:52.353Z,984.4
2016-01-11T06:09:52.292Z,984.4
2016-01-11T06:10:52.249Z,984.3
2016-01-11T06:11:52.189Z,984.4
2016-01-11T06:12:52.130Z,984.4
2016-01-11T06:13:52.054Z,984.4
2016-01-11T06:14:52.010Z,984.4
2016-01-11T06:15:51.950Z,984.2
2016-01-11T06:16:51.890Z,984.4
2016-01-11T06:17:51.846Z,984.3
2016-01-11T06:18:51.771Z,984.4
2016-01-11T06:19:51.726Z,984.4
2016-01-11T06:20:51.667Z,984.3
2016-01-11T06:21:51.622Z,984.4
2016-01-11T06:22:51.547Z,984.4
2016-01-11T06:23:51.503Z,984.2
2016-01-11T06:24:51.630Z,984.4
2016-01-11T06:25:51.586Z,984.4
2016-01-11T06:26:51.308Z,984.3
2016-01-11T06:27:51.264Z,984.3
2016-01-11T06:28:51.219Z,984.3
2016-01-11T06:29:51.143Z,984.3
2016-01-11T06:30:51.084Z,984.2
2016-01-11T06:31:51.024Z,984.2
2016-01-11T06:32:50.965Z,984.2
2016-01-11T06:33:50.920Z,984.2
2016-01-11T06:34:50.892Z,984.3
2016-01-11T06:35:51.314Z,984.2
2016-01-11T06:36:50.019Z,984.1
2016-01-11T06:37:50.901Z,984.3
2016-01-11T06:38:51.404Z,984.3
2016-01-11T06:39:50.766Z,984.1
2016-01-11T06:40:50.582Z,984.1
2016-01-11T06:41:50.460Z,984.2
2016-01-11T06:42:50.399Z,984.2
2016-01-11T06:43:50.339Z,984.2
2016-01-11T06:44:50.326Z,984.1
2016-01-11T06:45:50.251Z,984.2
2016-01-11T06:46:50.175Z,984.2
2016-01-11T06:47:50.318Z,984.1
2016-01-11T06:48:50.057Z,984.2
2016-01-11T06:49:49.996Z,984.2
2016-01-11T06:50:49.968Z,984.2
2016-01-11T06:51:49.892Z,984.1
2016-01-11T06:52:49.817Z,984.1
2016-01-11T06:53:49.773Z,984
2016-01-11T06:54:49.710Z,984.1
2016-01-11T06:55:49.790Z,984
2016-01-11T06:56:49.606Z,984
2016-01-11T06:57:49.546Z,984
2016-01-11T06:58:49.487Z,984
2016-01-11T06:59:49.426Z,984
2016-01-11T07:00:49.367Z,984.1
2016-01-11T07:01:49.306Z,984.1
2016-01-11T07:02:49.279Z,984
2016-01-11T07:03:49.188Z,984.2
2016-01-11T07:04:49.143Z,984.1
2016-01-11T07:05:49.084Z,984
2016-01-11T07:06:49.024Z,984.1
2016-01-11T07:07:48.964Z,984.1
2016-01-11T07:08:48.936Z,984
2016-01-11T07:09:48.845Z,984.1
2016-01-11T07:10:48.800Z,984.2
2016-01-11T07:11:48.741Z,984.1
2016-01-11T07:12:48.680Z,984
2016-01-11T07:13:48.636Z,984
2016-01-11T07:14:48.592Z,984.1
2016-01-11T07:15:48.517Z,984
2016-01-11T07:16:48.458Z,984.1
2016-01-11T07:17:48.413Z,984
2016-01-11T07:18:48.353Z,984
2016-01-11T07:19:48.310Z,983.9
2016-01-11T07:20:48.218Z,983.8
2016-01-11T07:21:48.174Z,983.9
2016-01-11T07:22:48.114Z,983.8
2016-01-11T07:23:48.055Z,983.9
2016-01-11T07:24:48.010Z,983.8
2016-01-11T07:25:48.169Z,983.8
2016-01-11T07:26:47.874Z,983.8
2016-01-11T07:27:47.831Z,983.9
2016-01-11T07:28:47.771Z,983.9
2016-01-11T07:29:47.726Z,984
2016-01-11T07:30:47.652Z,984
2016-01-11T07:31:47.607Z,984
2016-01-11T07:32:47.548Z,983.9
2016-01-11T07:33:47.488Z,984
2016-01-11T07:34:47.428Z,983.9
2016-01-11T07:35:47.384Z,983.9
2016-01-11T07:36:47.323Z,984
2016-01-11T07:37:47.279Z,983.9
2016-01-11T07:38:47.392Z,984
2016-01-11T07:39:47.144Z,983.8
2016-01-11T07:40:47.085Z,983.8
2016-01-11T07:41:47.025Z,983.7
2016-01-11T07:42:46.981Z,983.8
2016-01-11T07:43:46.170Z,983.8
2016-01-11T07:44:46.861Z,983.7
2016-01-11T07:45:46.801Z,983.7
2016-01-11T07:46:46.742Z,983.8
2016-01-11T07:47:46.681Z,983.8
2016-01-11T07:48:46.856Z,983.8
2016-01-11T07:49:46.577Z,983.9
2016-01-11T07:50:46.361Z,983.7
2016-01-11T07:51:46.458Z,983.7
2016-01-11T07:52:46.414Z,983.8
2016-01-11T07:53:46.339Z,983.6
2016-01-11T07:54:46.279Z,983.5
2016-01-11T07:55:46.234Z,983.6
2016-01-11T07:56:46.174Z,983.4
2016-01-11T07:57:46.115Z,983.6
2016-01-11T07:58:46.055Z,983.5
2016-01-11T07:59:46.010Z,983.5
2016-01-11T08:00:45.951Z,983.7
2016-01-11T08:01:45.891Z,983.5
2016-01-11T08:02:45.832Z,983.5
2016-01-11T08:03:45.771Z,983.5
2016-01-11T08:04:45.727Z,983.6
2016-01-11T08:05:45.668Z,983.6
2016-01-11T08:06:45.608Z,983.5
2016-01-11T08:07:45.548Z,983.6
2016-01-11T08:08:45.504Z,983.7
2016-01-11T08:09:45.428Z,983.6
2016-01-11T08:10:45.384Z,983.6
2016-01-11T08:11:45.309Z,983.5
2016-01-11T08:12:45.265Z,983.5
2016-01-11T08:13:45.205Z,983.5
2016-01-11T08:14:45.145Z,983.6
2016-01-11T08:15:45.320Z,983.6
2016-01-11T08:16:45.025Z,983.5
2016-01-11T08:17:44.966Z,983.7
2016-01-11T08:18:44.906Z,983.4
2016-01-11T08:19:45.064Z,983.6
2016-01-11T08:20:44.817Z,983.6
2016-01-11T08:21:44.788Z,983.8
2016-01-11T08:22:44.698Z,983.6
2016-01-11T08:23:44.639Z,983.8
2016-01-11T08:24:44.563Z,983.7
2016-01-11T08:25:44.519Z,983.7
2016-01-11T08:26:44.458Z,983.8
2016-01-11T08:27:44.446Z,983.8
2016-01-11T08:28:44.355Z,983.8
2016-01-11T08:29:44.279Z,983.8
2016-01-11T08:30:44.079Z,983.9
2016-01-11T08:31:44.160Z,983.9
2016-01-11T08:32:44.116Z,983.9
2016-01-11T08:33:44.055Z,984
2016-01-11T08:34:44.012Z,983.8
2016-01-11T08:35:44.139Z,983.8
2016-01-11T08:36:43.876Z,984
2016-01-11T08:37:43.832Z,984.1
2016-01-11T08:38:43.773Z,984
2016-01-11T08:39:43.728Z,984.1
2016-01-11T08:40:43.653Z,984.1
2016-01-11T08:41:43.609Z,984
2016-01-11T08:42:43.548Z,983.9
2016-01-11T08:43:43.473Z,983.9
2016-01-11T08:44:43.429Z,984
2016-01-11T08:45:43.573Z,984
2016-01-11T08:46:43.325Z,984
2016-01-11T08:47:43.250Z,984
2016-01-11T08:48:43.220Z,983.9
2016-01-11T08:49:43.130Z,984.1
2016-01-11T08:50:43.320Z,984
2016-01-11T08:51:43.025Z,983.9
2016-01-11T08:52:42.967Z,984
2016-01-11T08:53:42.923Z,984
2016-01-11T08:54:42.862Z,984
2016-01-11T08:55:42.802Z,984.1
2016-01-11T08:56:42.727Z,983.8
2016-01-11T08:57:42.699Z,983.9
2016-01-11T08:58:42.622Z,984
2016-01-11T08:59:42.563Z,983.9
2016-01-11T09:00:42.753Z,984
2016-01-11T09:01:42.460Z,984
2016-01-11T09:02:42.399Z,983.8
2016-01-11T09:03:42.574Z,984
2016-01-11T09:04:42.296Z,984
2016-01-11T09:05:42.221Z,984
2016-01-11T09:06:42.191Z,984
2016-01-11T09:07:42.116Z,983.9
2016-01-11T09:08:42.071Z,983.9
2016-01-11T09:09:41.996Z,984
2016-01-11T09:10:41.952Z,983.9
2016-01-11T09:11:41.877Z,984
2016-01-11T09:12:41.833Z,983.9
2016-01-11T09:13:41.774Z,984
2016-01-11T09:14:41.698Z,983.8
2016-01-11T09:15:41.888Z,984
2016-01-11T09:16:41.593Z,983.9
2016-01-11T09:17:41.534Z,983.9
2016-01-11T09:18:41.473Z,984
2016-01-11T09:19:41.429Z,983.9
2016-01-11T09:20:41.604Z,983.9
2016-01-11T09:21:41.310Z,983.9
2016-01-11T09:22:41.267Z,983.9
2016-01-11T09:23:41.190Z,983.9
2016-01-11T09:24:41.130Z,983.8
2016-01-11T09:25:41.086Z,983.7
2016-01-11T09:26:41.231Z,983.8
2016-01-11T09:27:41.217Z,983.9
2016-01-11T09:28:40.908Z,983.9
2016-01-11T09:29:40.864Z,983.9
2016-01-11T09:30:41.006Z,983.9
2016-01-11T09:31:40.962Z,984
2016-01-11T09:32:40.699Z,983.9
2016-01-11T09:33:40.640Z,983.9
2016-01-11T09:34:40.580Z,983.9
2016-01-11T09:35:40.535Z,983.8
2016-01-11T09:36:40.475Z,983.8
2016-01-11T09:37:40.416Z,983.8
2016-01-11T09:38:40.560Z,983.8
2016-01-11T09:39:40.312Z,983.8
2016-01-11T09:40:40.236Z,983.9
2016-01-11T09:41:40.193Z,983.9
2016-01-11T09:42:40.132Z,983.9
2016-01-11T09:43:40.073Z,983.9
2016-01-11T09:44:40.010Z,983.8
2016-01-11T09:45:39.966Z,983.8
2016-01-11T09:46:39.906Z,983.9
2016-01-11T09:47:39.831Z,983.8
2016-01-11T09:48:40.021Z,983.8
2016-01-11T09:49:39.726Z,983.8
2016-01-11T09:50:39.683Z,983.7
2016-01-11T09:51:39.623Z,983.7
2016-01-11T09:52:39.563Z,983.6
2016-01-11T09:53:39.503Z,983.7
2016-01-11T09:54:39.443Z,983.8
2016-01-11T09:55:39.399Z,983.7
2016-01-11T09:56:39.339Z,983.6
2016-01-11T09:57:39.279Z,983.6
2016-01-11T09:58:39.236Z,983.6
2016-01-11T09:59:39.395Z,983.5
2016-01-11T10:00:39.101Z,983.5
2016-01-11T10:01:39.056Z,983.5
2016-01-11T10:02:39.026Z,983.5
2016-01-11T10:03:38.934Z,983.5
2016-01-11T10:04:38.938Z,983.4
2016-01-11T10:05:38.846Z,983.5
2016-01-11T10:06:38.990Z,983.5
2016-01-11T10:07:38.742Z,983.3
2016-01-11T10:08:38.651Z,983.4
2016-01-11T10:09:38.606Z,983.4
2016-01-11T10:10:37.813Z,983.3
2016-01-11T10:11:38.503Z,983.4
2016-01-11T10:12:38.428Z,983.4
2016-01-11T10:13:38.367Z,983.3
2016-01-11T10:14:38.605Z,983.3
2016-01-11T10:15:38.311Z,983.4
2016-01-11T10:16:38.048Z,983.2
2016-01-11T10:17:38.145Z,983.2
2016-01-11T10:18:38.100Z,983.3
2016-01-11T10:19:38.072Z,983.4
2016-01-11T10:20:37.981Z,983.2
2016-01-11T10:21:37.921Z,983.3
2016-01-11T10:22:37.877Z,983.3
2016-01-11T10:23:37.817Z,983.3
2016-01-11T10:24:37.758Z,983.3
2016-01-11T10:25:37.697Z,983.3
2016-01-11T10:26:37.652Z,983.1
2016-01-11T10:27:37.577Z,983.3
2016-01-11T10:28:37.971Z,983.2
2016-01-11T10:29:37.474Z,983.2
2016-01-11T10:30:37.414Z,983.2
2016-01-11T10:31:37.369Z,983.1
2016-01-11T10:32:37.310Z,983
2016-01-11T10:33:37.249Z,983
2016-01-11T10:34:37.206Z,983.1
2016-01-11T10:35:37.146Z,983.1
2016-01-11T10:36:37.087Z,983.1
2016-01-11T10:37:37.026Z,982.9
2016-01-11T10:38:36.967Z,983.2
2016-01-11T10:39:36.923Z,983
2016-01-11T10:40:36.862Z,983
2016-01-11T10:41:36.818Z,983
2016-01-11T10:42:36.743Z,983
2016-01-11T10:43:36.698Z,983
2016-01-11T10:44:36.873Z,983
2016-01-11T10:45:36.579Z,983
2016-01-11T10:46:36.519Z,983
2016-01-11T10:47:36.506Z,983
2016-01-11T10:48:36.400Z,983
2016-01-11T10:49:36.215Z,983
2016-01-11T10:50:36.295Z,982.9
2016-01-11T10:51:36.253Z,983.1
2016-01-11T10:52:36.192Z,983.1
2016-01-11T10:53:36.335Z,982.9
2016-01-11T10:54:36.088Z,982.9
2016-01-11T10:55:36.013Z,982.9
2016-01-11T10:56:35.999Z,982.7
2016-01-11T10:57:35.908Z,982.9
2016-01-11T10:58:35.849Z,982.8
2016-01-11T10:59:35.804Z,982.7
2016-01-11T11:00:35.744Z,982.8
2016-01-11T11:01:35.686Z,982.7
2016-01-11T11:02:35.641Z,982.8
2016-01-11T11:03:35.565Z,982.8
2016-01-11T11:04:34.756Z,982.6
2016-01-11T11:05:35.711Z,982.7
2016-01-11T11:06:35.402Z,982.7
2016-01-11T11:07:35.342Z,982.8
2016-01-11T11:08:35.298Z,982.8
2016-01-11T11:09:35.254Z,982.6
2016-01-11T11:10:35.178Z,982.6
2016-01-11T11:11:35.135Z,982.7
2016-01-11T11:12:35.074Z,982.7
2016-01-11T11:13:35.015Z,982.7
2016-01-11T11:14:34.954Z,982.6
2016-01-11T11:15:35.113Z,982.6
2016-01-11T11:16:34.866Z,982.6
2016-01-11T11:17:34.791Z,982.6
2016-01-11T11:18:34.763Z,982.6
2016-01-11T11:19:34.687Z,982.6
2016-01-11T11:20:34.658Z,982.6
2016-01-11T11:21:34.567Z,982.7
2016-01-11T11:22:34.523Z,982.6
2016-01-11T11:23:34.479Z,982.6
2016-01-11T11:24:34.419Z,982.5
2016-01-11T11:25:34.359Z,982.6
2016-01-11T11:26:34.299Z,982.6
2016-01-11T11:27:34.474Z,982.5
2016-01-11T11:28:34.180Z,982.6
2016-01-11T11:29:34.136Z,982.6
2016-01-11T11:30:34.075Z,982.5
2016-01-11T11:31:34.032Z,982.5
2016-01-11T11:32:33.956Z,982.5
2016-01-11T11:33:33.911Z,982.5
2016-01-11T11:34:33.853Z,982.4
2016-01-11T11:35:33.792Z,982.4
2016-01-11T11:36:34.186Z,982.3
2016-01-11T11:37:33.705Z,982.3
2016-01-11T11:38:33.832Z,982.3
2016-01-11T11:39:33.585Z,982.4
2016-01-11T11:40:33.728Z,982.4
2016-01-11T11:41:33.497Z,982.5
2016-01-11T11:42:33.515Z,982.3
2016-01-11T11:43:33.361Z,982.4
2016-01-11T11:44:33.301Z,982.4
2016-01-11T11:45:33.257Z,982.3
2016-01-11T11:46:33.182Z,982.3
2016-01-11T11:47:33.246Z,982.4
2016-01-11T11:48:33.077Z,982.5
2016-01-11T11:49:33.034Z,982.4
2016-01-11T11:50:32.973Z,982.3
2016-01-11T11:51:32.914Z,982.4
2016-01-11T11:52:32.838Z,982.3
2016-01-11T11:53:32.794Z,982.4
2016-01-11T11:54:32.923Z,982.3
2016-01-11T11:55:32.675Z,982.3
2016-01-11T11:56:32.615Z,982.2
2016-01-11T11:57:32.790Z,982.1
2016-01-11T11:58:32.886Z,982.3
2016-01-11T11:59:32.529Z,982.2
2016-01-11T12:00:32.595Z,982.3
2016-01-11T12:01:32.331Z,982.2
2016-01-11T12:02:32.490Z,982.3
2016-01-11T12:03:32.462Z,982.2
2016-01-11T12:04:32.184Z,982.2
2016-01-11T12:05:32.123Z,982.4
2016-01-11T12:06:32.080Z,982.2
2016-01-11T12:07:32.004Z,982.3
2016-01-11T12:08:32.039Z,982.2
2016-01-11T12:09:32.134Z,982
2016-01-11T12:10:32.075Z,982
2016-01-11T12:11:31.796Z,982.1
2016-01-11T12:12:31.986Z,981.9
2016-01-11T12:13:31.535Z,981.8
2016-01-11T12:14:31.819Z,981.9
2016-01-11T12:15:31.605Z,981.7
2016-01-11T12:16:31.513Z,981.5
2016-01-11T12:17:31.453Z,981.7
2016-01-11T12:18:31.408Z,981.6
2016-01-11T12:19:31.349Z,981.6
2016-01-11T12:20:31.305Z,981.6
2016-01-11T12:21:31.245Z,981.6
2016-01-11T12:22:31.185Z,981.5
2016-01-11T12:23:31.140Z,981.5
2016-01-11T12:24:31.081Z,981.6
2016-01-11T12:25:31.021Z,981.5
2016-01-11T12:26:30.977Z,981.7
2016-01-11T12:27:31.012Z,981.5
2016-01-11T12:28:30.873Z,981.7
2016-01-11T12:29:30.813Z,981.7
2016-01-11T12:30:30.754Z,981.5
2016-01-11T12:31:30.912Z,981.5
2016-01-11T12:32:30.650Z,981.4
2016-01-11T12:33:30.590Z,981.5
2016-01-11T12:34:30.734Z,981.5
2016-01-11T12:35:30.783Z,981.6
2016-01-11T12:36:30.473Z,981.5
2016-01-11T12:37:30.413Z,981.7
2016-01-11T12:38:31.150Z,981.6
2016-01-11T12:39:30.309Z,981.7
2016-01-11T12:40:30.233Z,981.5
2016-01-11T12:41:30.205Z,981.6
2016-01-11T12:42:30.130Z,981.5
2016-01-11T12:43:29.930Z,981.6
2016-01-11T12:44:30.261Z,981.5
2016-01-11T12:45:29.966Z,981.5
2016-01-11T12:46:29.922Z,981.5
2016-01-11T12:47:29.861Z,981.6
2016-01-11T12:48:29.802Z,981.4
2016-01-11T12:49:29.755Z,981.5
2016-01-11T12:50:29.696Z,981.4
2016-01-11T12:51:29.651Z,981.5
2016-01-11T12:52:29.826Z,981.5
2016-01-11T12:53:29.756Z,981.5
2016-01-11T12:54:29.449Z,981.5
2016-01-11T12:55:29.378Z,981.4
2016-01-11T12:56:29.352Z,981.4
2016-01-11T12:57:29.217Z,981.4
2016-01-11T12:58:29.168Z,981.5